Chegutu, Zimbabwe
Current Conditions -  °F | °C
As of 2:00 AM on Wednesday 22 Oct 2014 (Local Time) from FVHA Reporting Station
Clear Clear  
Wind Chill: 57°   Ceiling: Unl
Heat Index: 57°   Visibility: 6mi
Dew Point: 46°   Wind: 7mph
Humidity: 67%   Direction: 70°ENE
Pressure: 30.24"   Gusts: NA
Location:  18.13°S, 30.14°E
Report Text: FVHA 220000Z 07006KT CAVOK 14/08 Q1024 NOSIG
Loading
Personal Weather Stations






























Interactive Weather Map
Tropical Storm Tracking
New forecast layout! Learn more

10-Day Weather Forecast

Advertisements
Track Severe Weather on mobile